sensor_id;sensor_type;location;lat;lon;timestamp;temperature;humidity
64951;DHT22;51482;47.014;7.652;2023-02-10T00:01:28;-0.90;99.90
64951;DHT22;51482;47.014;7.652;2023-02-10T00:03:55;-0.90;99.90
64951;DHT22;51482;47.014;7.652;2023-02-10T00:06:22;-1.00;99.90
64951;DHT22;51482;47.014;7.652;2023-02-10T00:08:54;-1.00;99.90
64951;DHT22;51482;47.014;7.652;2023-02-10T00:11:20;-1.00;99.90
64951;DHT22;51482;47.014;7.652;2023-02-10T00:14:06;-1.10;99.90
64951;DHT22;51482;47.014;7.652;2023-02-10T00:16:31;-1.30;99.90
64951;DHT22;51482;47.014;7.652;2023-02-10T00:18:57;-2.50;99.90
64951;DHT22;51482;47.014;7.652;2023-02-10T00:21:22;-1.20;99.90
64951;DHT22;51482;47.014;7.652;2023-02-10T00:23:48;-1.30;99.90
64951;DHT22;51482;47.014;7.652;2023-02-10T00:26:13;-1.40;99.90
64951;DHT22;51482;47.014;7.652;2023-02-10T00:28:39;-1.10;99.90
64951;DHT22;51482;47.014;7.652;2023-02-10T00:31:09;-1.20;99.90
64951;DHT22;51482;47.014;7.652;2023-02-10T00:33:35;-1.50;99.90
64951;DHT22;51482;47.014;7.652;2023-02-10T00:36:09;-1.70;99.90
64951;DHT22;51482;47.014;7.652;2023-02-10T00:38:35;-1.10;99.90
64951;DHT22;51482;47.014;7.652;2023-02-10T00:41:12;-1.30;99.90
64951;DHT22;51482;47.014;7.652;2023-02-10T00:43:38;-1.70;99.90
64951;DHT22;51482;47.014;7.652;2023-02-10T00:46:08;-1.10;99.90
64951;DHT22;51482;47.014;7.652;2023-02-10T00:48:34;-1.10;99.90
64951;DHT22;51482;47.014;7.652;2023-02-10T00:51:00;-1.20;99.90
64951;DHT22;51482;47.014;7.652;2023-02-10T00:53:25;-1.20;99.90
64951;DHT22;51482;47.014;7.652;2023-02-10T00:55:51;-1.30;99.90
64951;DHT22;51482;47.014;7.652;2023-02-10T00:58:17;-1.90;99.90
64951;DHT22;51482;47.014;7.652;2023-02-10T01:00:42;-1.40;99.90
64951;DHT22;51482;47.014;7.652;2023-02-10T01:03:08;-1.40;99.90
64951;DHT22;51482;47.014;7.652;2023-02-10T01:05:34;-1.70;99.90
64951;DHT22;51482;47.014;7.652;2023-02-10T01:08:00;-1.40;99.90
64951;DHT22;51482;47.014;7.652;2023-02-10T01:10:25;-1.30;99.90
64951;DHT22;51482;47.014;7.652;2023-02-10T01:12:51;-1.90;99.90
64951;DHT22;51482;47.014;7.652;2023-02-10T01:15:17;-1.30;99.90
64951;DHT22;51482;47.014;7.652;2023-02-10T01:17:42;-1.40;99.90
64951;DHT22;51482;47.014;7.652;2023-02-10T01:20:08;-1.90;99.90
64951;DHT22;51482;47.014;7.652;2023-02-10T01:22:34;-2.00;99.90
64951;DHT22;51482;47.014;7.652;2023-02-10T01:25:00;-1.50;99.90
64951;DHT22;51482;47.014;7.652;2023-02-10T01:27:25;-1.50;99.90
64951;DHT22;51482;47.014;7.652;2023-02-10T01:29:51;-1.30;99.90
64951;DHT22;51482;47.014;7.652;2023-02-10T01:32:16;-1.40;99.90
64951;DHT22;51482;47.014;7.652;2023-02-10T01:34:42;-1.40;99.90
64951;DHT22;51482;47.014;7.652;2023-02-10T01:37:08;-1.30;99.90
64951;DHT22;51482;47.014;7.652;2023-02-10T01:39:33;-1.50;99.90
64951;DHT22;51482;47.014;7.652;2023-02-10T01:41:59;-1.70;99.90
64951;DHT22;51482;47.014;7.652;2023-02-10T01:46:50;-2.00;99.90
64951;DHT22;51482;47.014;7.652;2023-02-10T01:49:19;-2.10;99.90
64951;DHT22;51482;47.014;7.652;2023-02-10T01:54:24;-2.30;99.90
64951;DHT22;51482;47.014;7.652;2023-02-10T01:56:52;-1.80;99.90
64951;DHT22;51482;47.014;7.652;2023-02-10T01:59:19;-2.20;99.90
64951;DHT22;51482;47.014;7.652;2023-02-10T02:01:46;-1.70;99.90
64951;DHT22;51482;47.014;7.652;2023-02-10T02:04:11;-1.70;99.90
64951;DHT22;51482;47.014;7.652;2023-02-10T02:06:37;-1.90;99.90
64951;DHT22;51482;47.014;7.652;2023-02-10T02:09:04;-1.80;99.90
64951;DHT22;51482;47.014;7.652;2023-02-10T02:14:22;-2.30;99.90
64951;DHT22;51482;47.014;7.652;2023-02-10T02:17:21;-2.50;99.90
64951;DHT22;51482;47.014;7.652;2023-02-10T02:20:04;-2.20;99.90
64951;DHT22;51482;47.014;7.652;2023-02-10T02:28:29;-2.60;99.90
64951;DHT22;51482;47.014;7.652;2023-02-10T02:37:19;-2.80;99.90
64951;DHT22;51482;47.014;7.652;2023-02-10T02:39:49;-3.00;99.90
64951;DHT22;51482;47.014;7.652;2023-02-10T02:42:22;-2.10;99.90
64951;DHT22;51482;47.014;7.652;2023-02-10T02:44:51;-2.40;99.90
64951;DHT22;51482;47.014;7.652;2023-02-10T02:50:19;-2.70;99.90
64951;DHT22;51482;47.014;7.652;2023-02-10T02:52:58;-2.10;99.90
64951;DHT22;51482;47.014;7.652;2023-02-10T02:55:39;-2.70;99.90
64951;DHT22;51482;47.014;7.652;2023-02-10T03:00:47;-1.90;99.90
64951;DHT22;51482;47.014;7.652;2023-02-10T03:03:14;-2.60;99.90
64951;DHT22;51482;47.014;7.652;2023-02-10T03:05:40;-2.10;99.90
64951;DHT22;51482;47.014;7.652;2023-02-10T03:08:06;-2.30;99.90
64951;DHT22;51482;47.014;7.652;2023-02-10T03:10:31;-2.10;99.90
64951;DHT22;51482;47.014;7.652;2023-02-10T03:12:57;-2.20;99.90
64951;DHT22;51482;47.014;7.652;2023-02-10T03:15:22;-2.90;99.90
64951;DHT22;51482;47.014;7.652;2023-02-10T03:17:48;-2.40;99.90
64951;DHT22;51482;47.014;7.652;2023-02-10T03:20:14;-2.10;99.90
64951;DHT22;51482;47.014;7.652;2023-02-10T03:22:41;-3.00;99.90
64951;DHT22;51482;47.014;7.652;2023-02-10T03:25:07;-2.40;99.90
64951;DHT22;51482;47.014;7.652;2023-02-10T03:27:33;-2.00;99.90
64951;DHT22;51482;47.014;7.652;2023-02-10T03:29:58;-2.90;99.90
64951;DHT22;51482;47.014;7.652;2023-02-10T03:32:24;-2.20;99.90
64951;DHT22;51482;47.014;7.652;2023-02-10T03:34:50;-2.20;99.90
64951;DHT22;51482;47.014;7.652;2023-02-10T03:37:15;-2.50;99.90
64951;DHT22;51482;47.014;7.652;2023-02-10T03:39:41;-2.20;99.90
64951;DHT22;51482;47.014;7.652;2023-02-10T03:42:06;-2.80;99.90
64951;DHT22;51482;47.014;7.652;2023-02-10T03:44:32;-2.60;99.90
64951;DHT22;51482;47.014;7.652;2023-02-10T03:46:57;-2.20;99.90
64951;DHT22;51482;47.014;7.652;2023-02-10T03:49:23;-2.80;99.90
64951;DHT22;51482;47.014;7.652;2023-02-10T03:51:49;-2.30;99.90
64951;DHT22;51482;47.014;7.652;2023-02-10T03:54:15;-2.50;99.90
64951;DHT22;51482;47.014;7.652;2023-02-10T03:56:40;-2.30;99.90
64951;DHT22;51482;47.014;7.652;2023-02-10T03:59:06;-2.60;99.90
64951;DHT22;51482;47.014;7.652;2023-02-10T04:01:32;-2.90;99.90
64951;DHT22;51482;47.014;7.652;2023-02-10T04:03:58;-2.50;99.90
64951;DHT22;51482;47.014;7.652;2023-02-10T04:06:24;-2.50;99.90
64951;DHT22;51482;47.014;7.652;2023-02-10T04:08:50;-2.50;99.90
64951;DHT22;51482;47.014;7.652;2023-02-10T04:11:15;-2.50;99.90
64951;DHT22;51482;47.014;7.652;2023-02-10T04:13:41;-2.50;99.90
64951;DHT22;51482;47.014;7.652;2023-02-10T04:16:09;-3.10;99.90
64951;DHT22;51482;47.014;7.652;2023-02-10T04:18:35;-3.10;99.90
64951;DHT22;51482;47.014;7.652;2023-02-10T04:21:02;-3.10;99.90
64951;DHT22;51482;47.014;7.652;2023-02-10T04:23:29;-3.00;99.90
64951;DHT22;51482;47.014;7.652;2023-02-10T04:25:54;-2.60;99.90
64951;DHT22;51482;47.014;7.652;2023-02-10T04:28:20;-2.50;99.90
64951;DHT22;51482;47.014;7.652;2023-02-10T04:30:49;-3.60;99.90
64951;DHT22;51482;47.014;7.652;2023-02-10T04:33:15;-2.40;99.90
64951;DHT22;51482;47.014;7.652;2023-02-10T04:35:40;-2.50;99.90
64951;DHT22;51482;47.014;7.652;2023-02-10T04:38:06;-2.50;99.90
64951;DHT22;51482;47.014;7.652;2023-02-10T04:40:31;-2.40;99.90
64951;DHT22;51482;47.014;7.652;2023-02-10T04:42:57;-3.00;99.90
64951;DHT22;51482;47.014;7.652;2023-02-10T04:45:23;-2.60;99.90
64951;DHT22;51482;47.014;7.652;2023-02-10T04:47:48;-2.60;99.90
64951;DHT22;51482;47.014;7.652;2023-02-10T04:50:14;-2.60;99.90
64951;DHT22;51482;47.014;7.652;2023-02-10T04:52:39;-3.00;99.90
64951;DHT22;51482;47.014;7.652;2023-02-10T04:55:05;-3.40;99.90
64951;DHT22;51482;47.014;7.652;2023-02-10T04:57:30;-3.40;99.90
64951;DHT22;51482;47.014;7.652;2023-02-10T04:59:56;-3.50;99.90
64951;DHT22;51482;47.014;7.652;2023-02-10T05:02:21;-2.80;99.90
64951;DHT22;51482;47.014;7.652;2023-02-10T05:04:47;-2.80;99.90
64951;DHT22;51482;47.014;7.652;2023-02-10T05:07:12;-2.80;99.90
64951;DHT22;51482;47.014;7.652;2023-02-10T05:09:38;-3.10;99.90
64951;DHT22;51482;47.014;7.652;2023-02-10T05:12:03;-3.50;99.90
64951;DHT22;51482;47.014;7.652;2023-02-10T05:14:29;-3.60;99.90
64951;DHT22;51482;47.014;7.652;2023-02-10T05:16:54;-3.00;99.90
64951;DHT22;51482;47.014;7.652;2023-02-10T05:19:20;-2.90;99.90
64951;DHT22;51482;47.014;7.652;2023-02-10T05:21:45;-3.50;99.90
64951;DHT22;51482;47.014;7.652;2023-02-10T05:24:11;-3.10;99.90
64951;DHT22;51482;47.014;7.652;2023-02-10T05:26:37;-3.10;99.90
64951;DHT22;51482;47.014;7.652;2023-02-10T05:29:02;-3.60;99.90
64951;DHT22;51482;47.014;7.652;2023-02-10T05:31:30;-3.10;99.90
64951;DHT22;51482;47.014;7.652;2023-02-10T05:33:56;-3.70;99.90
64951;DHT22;51482;47.014;7.652;2023-02-10T05:36:21;-3.00;99.90
64951;DHT22;51482;47.014;7.652;2023-02-10T05:38:47;-4.30;99.90
64951;DHT22;51482;47.014;7.652;2023-02-10T05:41:31;-3.40;99.90
64951;DHT22;51482;47.014;7.652;2023-02-10T05:43:57;-3.00;99.90
64951;DHT22;51482;47.014;7.652;2023-02-10T05:46:23;-3.20;99.90
64951;DHT22;51482;47.014;7.652;2023-02-10T05:48:48;-3.00;99.90
64951;DHT22;51482;47.014;7.652;2023-02-10T05:51:14;-3.00;99.90
64951;DHT22;51482;47.014;7.652;2023-02-10T05:53:39;-3.10;99.90
64951;DHT22;51482;47.014;7.652;2023-02-10T05:56:05;-3.00;99.90
64951;DHT22;51482;47.014;7.652;2023-02-10T05:58:31;-3.50;99.90
64951;DHT22;51482;47.014;7.652;2023-02-10T06:00:58;-3.10;99.90
64951;DHT22;51482;47.014;7.652;2023-02-10T06:03:24;-3.80;99.90
64951;DHT22;51482;47.014;7.652;2023-02-10T06:05:49;-3.20;99.90
64951;DHT22;51482;47.014;7.652;2023-02-10T06:08:15;-3.70;99.90
64951;DHT22;51482;47.014;7.652;2023-02-10T06:10:40;-3.70;99.90
64951;DHT22;51482;47.014;7.652;2023-02-10T06:13:06;-3.10;99.90
64951;DHT22;51482;47.014;7.652;2023-02-10T06:15:31;-4.20;99.90
64951;DHT22;51482;47.014;7.652;2023-02-10T06:17:57;-3.30;99.90
64951;DHT22;51482;47.014;7.652;2023-02-10T06:20:22;-3.40;99.90
64951;DHT22;51482;47.014;7.652;2023-02-10T06:22:48;-3.80;99.90
64951;DHT22;51482;47.014;7.652;2023-02-10T06:25:13;-3.10;99.90
64951;DHT22;51482;47.014;7.652;2023-02-10T06:27:39;-2.90;99.90
64951;DHT22;51482;47.014;7.652;2023-02-10T06:30:05;-3.20;99.90
64951;DHT22;51482;47.014;7.652;2023-02-10T06:32:31;-3.80;99.90
64951;DHT22;51482;47.014;7.652;2023-02-10T06:34:56;-3.20;99.90
64951;DHT22;51482;47.014;7.652;2023-02-10T06:37:22;-3.10;99.90
64951;DHT22;51482;47.014;7.652;2023-02-10T06:39:47;-3.70;99.90
64951;DHT22;51482;47.014;7.652;2023-02-10T06:42:13;-3.10;99.90
64951;DHT22;51482;47.014;7.652;2023-02-10T06:44:38;-3.70;99.90
64951;DHT22;51482;47.014;7.652;2023-02-10T06:47:04;-3.70;99.90
64951;DHT22;51482;47.014;7.652;2023-02-10T06:49:29;-3.80;99.90
64951;DHT22;51482;47.014;7.652;2023-02-10T06:51:55;-3.10;99.90
64951;DHT22;51482;47.014;7.652;2023-02-10T06:54:21;-3.30;99.90
64951;DHT22;51482;47.014;7.652;2023-02-10T06:56:46;-3.90;99.90
64951;DHT22;51482;47.014;7.652;2023-02-10T06:59:12;-3.30;99.90
64951;DHT22;51482;47.014;7.652;2023-02-10T07:01:38;-3.20;99.90
64951;DHT22;51482;47.014;7.652;2023-02-10T07:04:04;-3.70;99.90
64951;DHT22;51482;47.014;7.652;2023-02-10T07:06:29;-4.00;99.90
64951;DHT22;51482;47.014;7.652;2023-02-10T07:08:55;-3.80;99.90
64951;DHT22;51482;47.014;7.652;2023-02-10T07:11:20;-3.20;99.90
64951;DHT22;51482;47.014;7.652;2023-02-10T07:13:46;-3.10;99.90
64951;DHT22;51482;47.014;7.652;2023-02-10T07:16:11;-3.10;99.90
64951;DHT22;51482;47.014;7.652;2023-02-10T07:18:40;-3.00;99.90
64951;DHT22;51482;47.014;7.652;2023-02-10T07:21:05;-3.40;99.90
64951;DHT22;51482;47.014;7.652;2023-02-10T07:23:31;-3.20;99.90
64951;DHT22;51482;47.014;7.652;2023-02-10T07:25:56;-3.60;99.90
64951;DHT22;51482;47.014;7.652;2023-02-10T07:28:22;-2.80;99.90
64951;DHT22;51482;47.014;7.652;2023-02-10T07:30:48;-3.00;99.90
64951;DHT22;51482;47.014;7.652;2023-02-10T07:33:13;-3.50;99.90
64951;DHT22;51482;47.014;7.652;2023-02-10T07:35:39;-2.80;99.90
64951;DHT22;51482;47.014;7.652;2023-02-10T07:38:04;-2.60;99.90
64951;DHT22;51482;47.014;7.652;2023-02-10T07:40:30;-2.60;99.90
64951;DHT22;51482;47.014;7.652;2023-02-10T07:42:56;-2.90;99.90
64951;DHT22;51482;47.014;7.652;2023-02-10T07:45:22;-2.40;99.90
64951;DHT22;51482;47.014;7.652;2023-02-10T07:47:47;-2.20;99.90
64951;DHT22;51482;47.014;7.652;2023-02-10T07:50:13;-2.50;99.90
64951;DHT22;51482;47.014;7.652;2023-02-10T07:52:39;-1.90;99.90
64951;DHT22;51482;47.014;7.652;2023-02-10T07:55:07;-1.80;99.90
64951;DHT22;51482;47.014;7.652;2023-02-10T07:57:32;-2.20;99.90
64951;DHT22;51482;47.014;7.652;2023-02-10T07:59:58;-1.60;99.90
64951;DHT22;51482;47.014;7.652;2023-02-10T08:02:23;-1.50;99.90
64951;DHT22;51482;47.014;7.652;2023-02-10T08:04:49;-1.40;99.90
64951;DHT22;51482;47.014;7.652;2023-02-10T08:07:17;-1.00;99.90
64951;DHT22;51482;47.014;7.652;2023-02-10T08:09:42;-1.30;99.90
64951;DHT22;51482;47.014;7.652;2023-02-10T08:12:08;-1.20;99.90
64951;DHT22;51482;47.014;7.652;2023-02-10T08:14:34;-0.40;99.90
64951;DHT22;51482;47.014;7.652;2023-02-10T08:16:59;-1.00;99.90
64951;DHT22;51482;47.014;7.652;2023-02-10T08:19:25;-0.80;99.90
64951;DHT22;51482;47.014;7.652;2023-02-10T08:21:50;0.00;99.90
64951;DHT22;51482;47.014;7.652;2023-02-10T08:24:16;0.00;99.90
64951;DHT22;51482;47.014;7.652;2023-02-10T08:26:41;0.40;99.90
64951;DHT22;51482;47.014;7.652;2023-02-10T08:29:07;0.40;99.90
64951;DHT22;51482;47.014;7.652;2023-02-10T08:31:33;-0.10;99.90
64951;DHT22;51482;47.014;7.652;2023-02-10T08:33:58;0.10;99.90
64951;DHT22;51482;47.014;7.652;2023-02-10T08:36:24;0.10;99.90
64951;DHT22;51482;47.014;7.652;2023-02-10T08:38:50;0.60;99.90
64951;DHT22;51482;47.014;7.652;2023-02-10T08:41:17;0.90;99.90
64951;DHT22;51482;47.014;7.652;2023-02-10T08:43:44;1.00;99.90
64951;DHT22;51482;47.014;7.652;2023-02-10T08:46:10;1.40;99.90
64951;DHT22;51482;47.014;7.652;2023-02-10T08:48:36;1.50;99.90
64951;DHT22;51482;47.014;7.652;2023-02-10T08:51:06;1.70;99.90
64951;DHT22;51482;47.014;7.652;2023-02-10T08:53:32;2.10;99.90
64951;DHT22;51482;47.014;7.652;2023-02-10T08:55:59;2.00;99.90
64951;DHT22;51482;47.014;7.652;2023-02-10T08:58:25;2.40;99.90
64951;DHT22;51482;47.014;7.652;2023-02-10T09:00:50;2.80;99.90
64951;DHT22;51482;47.014;7.652;2023-02-10T09:03:16;3.10;99.90
64951;DHT22;51482;47.014;7.652;2023-02-10T09:05:42;3.30;99.90
64951;DHT22;51482;47.014;7.652;2023-02-10T09:08:09;3.10;99.90
64951;DHT22;51482;47.014;7.652;2023-02-10T09:10:34;3.50;99.90
64951;DHT22;51482;47.014;7.652;2023-02-10T09:13:00;3.80;99.90
64951;DHT22;51482;47.014;7.652;2023-02-10T09:15:26;4.30;99.90
64951;DHT22;51482;47.014;7.652;2023-02-10T09:17:51;4.40;99.90
64951;DHT22;51482;47.014;7.652;2023-02-10T09:20:17;6.00;99.90
64951;DHT22;51482;47.014;7.652;2023-02-10T09:22:42;6.40;99.90
64951;DHT22;51482;47.014;7.652;2023-02-10T09:25:08;6.60;99.90
64951;DHT22;51482;47.014;7.652;2023-02-10T09:27:33;7.10;99.90
64951;DHT22;51482;47.014;7.652;2023-02-10T09:29:59;7.30;99.90
64951;DHT22;51482;47.014;7.652;2023-02-10T09:32:25;7.80;99.90
64951;DHT22;51482;47.014;7.652;2023-02-10T09:34:51;7.50;99.90
64951;DHT22;51482;47.014;7.652;2023-02-10T09:37:16;8.20;99.90
64951;DHT22;51482;47.014;7.652;2023-02-10T09:39:42;8.80;96.60
64951;DHT22;51482;47.014;7.652;2023-02-10T09:42:34;8.70;99.90
64951;DHT22;51482;47.014;7.652;2023-02-10T09:45:15;9.10;99.90
64951;DHT22;51482;47.014;7.652;2023-02-10T09:47:56;9.40;99.90
64951;DHT22;51482;47.014;7.652;2023-02-10T09:53:07;10.10;97.30
64951;DHT22;51482;47.014;7.652;2023-02-10T09:55:48;10.90;99.90
64951;DHT22;51482;47.014;7.652;2023-02-10T09:58:43;11.30;96.40
64951;DHT22;51482;47.014;7.652;2023-02-10T10:06:39;11.50;92.50
64951;DHT22;51482;47.014;7.652;2023-02-10T10:11:49;12.50;91.30
64951;DHT22;51482;47.014;7.652;2023-02-10T10:16:52;13.50;87.10
64951;DHT22;51482;47.014;7.652;2023-02-10T10:19:43;13.40;76.40
64951;DHT22;51482;47.014;7.652;2023-02-10T10:25:15;11.80;65.80
64951;DHT22;51482;47.014;7.652;2023-02-10T10:36:31;11.20;69.20
64951;DHT22;51482;47.014;7.652;2023-02-10T10:39:11;11.40;70.50
64951;DHT22;51482;47.014;7.652;2023-02-10T10:41:38;11.40;69.90
64951;DHT22;51482;47.014;7.652;2023-02-10T10:44:17;11.20;69.90
64951;DHT22;51482;47.014;7.652;2023-02-10T10:49:14;11.50;71.00
64951;DHT22;51482;47.014;7.652;2023-02-10T10:51:40;11.70;69.80
64951;DHT22;51482;47.014;7.652;2023-02-10T10:54:10;11.90;69.30
64951;DHT22;51482;47.014;7.652;2023-02-10T10:56:44;12.20;70.40
64951;DHT22;51482;47.014;7.652;2023-02-10T10:59:39;12.00;68.20
64951;DHT22;51482;47.014;7.652;2023-02-10T11:04:37;12.10;67.10
64951;DHT22;51482;47.014;7.652;2023-02-10T11:07:09;12.60;66.30
64951;DHT22;51482;47.014;7.652;2023-02-10T11:09:41;12.00;66.40
64951;DHT22;51482;47.014;7.652;2023-02-10T11:14:53;12.20;65.20
64951;DHT22;51482;47.014;7.652;2023-02-10T11:17:35;12.30;66.70
64951;DHT22;51482;47.014;7.652;2023-02-10T11:20:26;12.40;64.20
64951;DHT22;51482;47.014;7.652;2023-02-10T11:23:03;12.40;64.40
64951;DHT22;51482;47.014;7.652;2023-02-10T11:25:34;12.30;63.70
64951;DHT22;51482;47.014;7.652;2023-02-10T11:28:02;12.20;64.70
64951;DHT22;51482;47.014;7.652;2023-02-10T11:30:33;12.60;63.40
64951;DHT22;51482;47.014;7.652;2023-02-10T11:33:00;12.50;64.00
64951;DHT22;51482;47.014;7.652;2023-02-10T11:35:27;12.60;63.90
64951;DHT22;51482;47.014;7.652;2023-02-10T11:38:15;12.60;62.50
64951;DHT22;51482;47.014;7.652;2023-02-10T11:40:52;12.40;63.00
64951;DHT22;51482;47.014;7.652;2023-02-10T11:43:18;12.10;63.80
64951;DHT22;51482;47.014;7.652;2023-02-10T11:45:55;12.40;64.70
64951;DHT22;51482;47.014;7.652;2023-02-10T11:48:23;12.40;65.20
64951;DHT22;51482;47.014;7.652;2023-02-10T11:51:21;12.30;65.40
64951;DHT22;51482;47.014;7.652;2023-02-10T11:53:46;12.40;65.00
64951;DHT22;51482;47.014;7.652;2023-02-10T11:59:39;12.40;64.40
64951;DHT22;51482;47.014;7.652;2023-02-10T12:08:23;12.70;65.30
64951;DHT22;51482;47.014;7.652;2023-02-10T12:13:41;12.90;63.30
64951;DHT22;51482;47.014;7.652;2023-02-10T12:16:28;12.80;64.50
64951;DHT22;51482;47.014;7.652;2023-02-10T12:19:39;12.90;63.50
64951;DHT22;51482;47.014;7.652;2023-02-10T12:22:23;12.90;62.90
64951;DHT22;51482;47.014;7.652;2023-02-10T12:27:49;12.90;63.10
64951;DHT22;51482;47.014;7.652;2023-02-10T12:33:37;13.30;63.50
64951;DHT22;51482;47.014;7.652;2023-02-10T12:36:29;13.20;64.70
64951;DHT22;51482;47.014;7.652;2023-02-10T12:39:01;13.10;63.30
64951;DHT22;51482;47.014;7.652;2023-02-10T12:42:10;13.10;62.50
64951;DHT22;51482;47.014;7.652;2023-02-10T12:52:56;13.70;61.40
64951;DHT22;51482;47.014;7.652;2023-02-10T12:55:27;13.70;61.10
64951;DHT22;51482;47.014;7.652;2023-02-10T12:57:59;13.70;60.50
64951;DHT22;51482;47.014;7.652;2023-02-10T13:05:54;13.80;60.70
64951;DHT22;51482;47.014;7.652;2023-02-10T13:08:32;13.90;60.70
64951;DHT22;51482;47.014;7.652;2023-02-10T13:11:20;14.10;59.60
64951;DHT22;51482;47.014;7.652;2023-02-10T13:13:49;14.10;59.30
64951;DHT22;51482;47.014;7.652;2023-02-10T13:16:18;13.90;59.70
64951;DHT22;51482;47.014;7.652;2023-02-10T13:19:08;14.10;59.80
64951;DHT22;51482;47.014;7.652;2023-02-10T13:21:47;14.30;58.90
64951;DHT22;51482;47.014;7.652;2023-02-10T13:24:23;14.10;58.20
64951;DHT22;51482;47.014;7.652;2023-02-10T13:27:00;14.10;59.10
64951;DHT22;51482;47.014;7.652;2023-02-10T13:34:57;14.40;58.80
64951;DHT22;51482;47.014;7.652;2023-02-10T13:37:46;14.30;57.30
64951;DHT22;51482;47.014;7.652;2023-02-10T13:43:01;14.30;58.30
64951;DHT22;51482;47.014;7.652;2023-02-10T13:45:33;14.30;57.30
64951;DHT22;51482;47.014;7.652;2023-02-10T13:48:22;14.40;57.30
64951;DHT22;51482;47.014;7.652;2023-02-10T13:50:58;14.50;58.00
64951;DHT22;51482;47.014;7.652;2023-02-10T13:59:23;14.50;57.50
64951;DHT22;51482;47.014;7.652;2023-02-10T14:04:47;14.40;57.20
64951;DHT22;51482;47.014;7.652;2023-02-10T14:07:15;14.40;57.30
64951;DHT22;51482;47.014;7.652;2023-02-10T14:09:41;14.10;56.70
64951;DHT22;51482;47.014;7.652;2023-02-10T14:12:24;14.20;56.60
64951;DHT22;51482;47.014;7.652;2023-02-10T14:14:50;13.90;56.60
64951;DHT22;51482;47.014;7.652;2023-02-10T14:17:23;14.00;56.20
64951;DHT22;51482;47.014;7.652;2023-02-10T14:19:54;13.90;57.20
64951;DHT22;51482;47.014;7.652;2023-02-10T14:22:35;13.90;57.20
64951;DHT22;51482;47.014;7.652;2023-02-10T14:25:16;13.90;56.40
64951;DHT22;51482;47.014;7.652;2023-02-10T14:27:50;14.40;57.30
64951;DHT22;51482;47.014;7.652;2023-02-10T14:30:27;14.30;56.70
64951;DHT22;51482;47.014;7.652;2023-02-10T14:32:56;14.40;55.40
64951;DHT22;51482;47.014;7.652;2023-02-10T14:35:24;14.30;55.20
64951;DHT22;51482;47.014;7.652;2023-02-10T14:37:52;14.30;55.50
64951;DHT22;51482;47.014;7.652;2023-02-10T14:40:20;14.30;54.50
64951;DHT22;51482;47.014;7.652;2023-02-10T14:42:46;14.40;55.80
64951;DHT22;51482;47.014;7.652;2023-02-10T14:45:22;14.50;55.10
64951;DHT22;51482;47.014;7.652;2023-02-10T14:47:49;14.50;54.30
64951;DHT22;51482;47.014;7.652;2023-02-10T14:50:22;14.40;55.10
64951;DHT22;51482;47.014;7.652;2023-02-10T14:52:48;15.70;71.80
64951;DHT22;51482;47.014;7.652;2023-02-10T14:57:47;17.00;59.30
64951;DHT22;51482;47.014;7.652;2023-02-10T15:00:14;17.50;57.20
64951;DHT22;51482;47.014;7.652;2023-02-10T15:02:40;17.60;54.40
64951;DHT22;51482;47.014;7.652;2023-02-10T15:05:10;17.80;52.70
64951;DHT22;51482;47.014;7.652;2023-02-10T15:07:39;18.10;51.10
64951;DHT22;51482;47.014;7.652;2023-02-10T15:10:42;17.90;49.70
64951;DHT22;51482;47.014;7.652;2023-02-10T15:13:09;18.00;50.40
64951;DHT22;51482;47.014;7.652;2023-02-10T15:15:38;18.00;48.80
64951;DHT22;51482;47.014;7.652;2023-02-10T15:18:27;18.00;48.80
64951;DHT22;51482;47.014;7.652;2023-02-10T15:20:57;17.60;49.00
64951;DHT22;51482;47.014;7.652;2023-02-10T15:23:23;17.50;48.10
64951;DHT22;51482;47.014;7.652;2023-02-10T15:28:30;16.80;49.10
64951;DHT22;51482;47.014;7.652;2023-02-10T15:31:05;17.00;47.60
64951;DHT22;51482;47.014;7.652;2023-02-10T15:33:39;16.80;47.30
64951;DHT22;51482;47.014;7.652;2023-02-10T15:38:40;16.80;49.00
64951;DHT22;51482;47.014;7.652;2023-02-10T15:46:44;15.30;50.80
64951;DHT22;51482;47.014;7.652;2023-02-10T15:49:13;15.40;49.70
64951;DHT22;51482;47.014;7.652;2023-02-10T15:51:47;15.10;49.60
64951;DHT22;51482;47.014;7.652;2023-02-10T15:54:17;15.20;50.10
64951;DHT22;51482;47.014;7.652;2023-02-10T15:57:00;15.10;49.60
64951;DHT22;51482;47.014;7.652;2023-02-10T15:59:26;15.20;50.20
64951;DHT22;51482;47.014;7.652;2023-02-10T16:02:02;15.10;50.00
64951;DHT22;51482;47.014;7.652;2023-02-10T16:04:29;14.90;50.00
64951;DHT22;51482;47.014;7.652;2023-02-10T16:06:58;15.00;50.10
64951;DHT22;51482;47.014;7.652;2023-02-10T16:09:25;14.90;50.80
64951;DHT22;51482;47.014;7.652;2023-02-10T16:11:50;14.80;50.60
64951;DHT22;51482;47.014;7.652;2023-02-10T16:14:16;14.60;52.70
64951;DHT22;51482;47.014;7.652;2023-02-10T16:16:49;13.80;49.10
64951;DHT22;51482;47.014;7.652;2023-02-10T16:19:18;12.60;50.80
64951;DHT22;51482;47.014;7.652;2023-02-10T16:21:44;11.50;53.70
64951;DHT22;51482;47.014;7.652;2023-02-10T16:24:15;11.00;55.00
64951;DHT22;51482;47.014;7.652;2023-02-10T16:26:40;10.30;56.90
64951;DHT22;51482;47.014;7.652;2023-02-10T16:31:40;9.80;60.40
64951;DHT22;51482;47.014;7.652;2023-02-10T16:34:07;9.10;60.60
64951;DHT22;51482;47.014;7.652;2023-02-10T16:36:33;8.90;62.00
64951;DHT22;51482;47.014;7.652;2023-02-10T16:38:59;8.60;62.70
64951;DHT22;51482;47.014;7.652;2023-02-10T16:41:24;8.20;63.40
64951;DHT22;51482;47.014;7.652;2023-02-10T16:43:50;8.00;64.30
64951;DHT22;51482;47.014;7.652;2023-02-10T16:46:16;7.60;66.00
64951;DHT22;51482;47.014;7.652;2023-02-10T16:48:44;7.80;68.30
64951;DHT22;51482;47.014;7.652;2023-02-10T16:51:09;7.50;69.60
64951;DHT22;51482;47.014;7.652;2023-02-10T16:53:35;6.70;71.00
64951;DHT22;51482;47.014;7.652;2023-02-10T16:56:03;7.30;71.30
64951;DHT22;51482;47.014;7.652;2023-02-10T16:58:30;6.80;72.30
64951;DHT22;51482;47.014;7.652;2023-02-10T17:00:55;6.60;71.50
64951;DHT22;51482;47.014;7.652;2023-02-10T17:03:21;6.80;71.50
64951;DHT22;51482;47.014;7.652;2023-02-10T17:05:48;7.40;73.20
64951;DHT22;51482;47.014;7.652;2023-02-10T17:08:13;7.30;80.00
64951;DHT22;51482;47.014;7.652;2023-02-10T17:10:39;7.40;75.30
64951;DHT22;51482;47.014;7.652;2023-02-10T17:13:05;7.30;75.50
64951;DHT22;51482;47.014;7.652;2023-02-10T17:15:31;7.20;76.20
64951;DHT22;51482;47.014;7.652;2023-02-10T17:17:57;6.40;75.40
64951;DHT22;51482;47.014;7.652;2023-02-10T17:20:28;6.50;76.10
64951;DHT22;51482;47.014;7.652;2023-02-10T17:22:54;6.20;76.90
64951;DHT22;51482;47.014;7.652;2023-02-10T17:25:20;6.10;78.00
64951;DHT22;51482;47.014;7.652;2023-02-10T17:27:46;6.00;80.00
64951;DHT22;51482;47.014;7.652;2023-02-10T17:30:14;5.30;81.70
64951;DHT22;51482;47.014;7.652;2023-02-10T17:32:40;5.60;83.60
64951;DHT22;51482;47.014;7.652;2023-02-10T17:35:10;5.40;85.00
64951;DHT22;51482;47.014;7.652;2023-02-10T17:37:36;5.00;86.10
64951;DHT22;51482;47.014;7.652;2023-02-10T17:40:01;5.30;87.60
64951;DHT22;51482;47.014;7.652;2023-02-10T17:42:41;4.60;88.70
64951;DHT22;51482;47.014;7.652;2023-02-10T17:45:11;5.00;90.80
64951;DHT22;51482;47.014;7.652;2023-02-10T17:47:36;4.90;91.20